Time;durP1;ratioP1;P1;durP2;ratioP2;P2;SDS_P1;SDS_P2;PMS_P1;PMS_P2;Temp;Humidity;BMP_temperature;BMP_pressure;BME280_temperature;BME280_humidity;BME280_pressure;Samples;Min_cycle;Max_cycle;Signal;HPM_P1;HPM_P2
2021/09/16 05:52:24;;;;;;;6.00;2.20;;;;;;;;;;10503507;27;20411;-87
2021/09/16 05:57:25;;;;;;;;;;;;;;;;;;10493510;28;20127;-88
2021/09/16 06:02:26;;;;;;;6.35;2.85;;;;;;;;;;10501967;28;19980;-86
2021/09/16 06:07:27;;;;;;;5.05;3.13;;;;;;;;;;10500921;28;20032;-86
2021/09/16 06:12:30;;;;;;;4.50;1.92;;;;;;;;;;10495777;28;20029;-87
2021/09/16 06:17:31;;;;;;;3.03;1.80;;;;;;;;;;10492379;28;20025;-86
2021/09/16 06:22:32;;;;;;;2.80;1.55;;;;;;;;;;10493916;28;20025;-87
2021/09/16 06:27:33;;;;;;;4.90;2.33;;;;;;;;;;10491750;28;20027;-86
2021/09/16 06:32:36;;;;;;;7.30;3.85;;;;;;;;;;10492890;28;20017;-87
2021/09/16 06:37:37;;;;;;;2.90;2.03;;;;;;;;;;10490681;28;20021;-86
2021/09/16 06:42:38;;;;;;;5.72;4.00;;;;;;;;;;10492948;28;20024;-86
2021/09/16 06:47:39;;;;;;;7.75;3.78;;;;;;;;;;10501616;28;20123;-86
2021/09/16 06:52:40;;;;;;;8.23;4.30;;;;;;;;;;10489445;28;20128;-86
2021/09/16 06:57:41;;;;;;;7.82;4.10;;;;;;;;;;10489900;28;20064;-86
2021/09/16 07:02:47;;;;;;;3.88;2.55;;;;;;;;;;10468430;28;20025;-85
2021/09/16 07:07:48;;;;;;;3.13;1.92;;;;;;;;;;10469614;28;20128;-83
2021/09/16 07:12:49;;;;;;;2.47;1.58;;;;;;;;;;10474224;28;20045;-85
2021/09/16 07:23:40;;;;;;;5.13;2.80;;;;;;;;;;10459573;28;20025;-85
2021/09/16 07:28:44;;;;;;;7.07;3.15;;;;;;;;;;10462116;28;20035;-88
2021/09/16 07:34:02;;;;;;;5.10;3.13;;;;;;;;;;10479991;28;20036;-88
2021/09/16 07:39:17;;;;;;;6.28;3.60;;;;;;;;;;10468050;28;20490;-88
2021/09/16 07:44:21;;;;;;;6.32;3.00;;;;;;;;;;10465506;28;20136;-88
2021/09/16 07:49:27;;;;;;;7.05;3.13;;;;;;;;;;10464277;28;20071;-89
2021/09/16 07:54:34;;;;;;;8.95;3.78;;;;;;;;;;10464795;28;20125;-89
2021/09/16 07:59:42;;;;;;;5.55;3.03;;;;;;;;;;10462166;28;20029;-89
2021/09/16 08:04:49;;;;;;;4.43;3.45;;;;;;;;;;10462601;28;20044;-89
2021/09/16 08:09:50;;;;;;;5.40;2.72;;;;;;;;;;10459895;28;20029;-89
2021/09/16 08:15:00;;;;;;;5.57;3.30;;;;;;;;;;10459799;28;20033;-88
2021/09/16 08:20:01;;;;;;;8.10;4.25;;;;;;;;;;10464293;28;20029;-88
2021/09/16 08:25:38;;;;;;;5.32;3.03;;;;;;;;;;10461385;28;20082;-88
2021/09/16 10:38:15;;;;;;;5.85;2.20;;;;;;;;;;10404313;28;20109;-88
2021/09/16 10:43:35;;;;;;;3.80;2.13;;;;;;;;;;10348051;28;20047;-88
2021/09/16 10:49:00;;;;;;;4.93;2.80;;;;;;;;;;10345660;28;20270;-89
2021/09/16 10:54:52;;;;;;;3.40;1.95;;;;;;;;;;10346032;28;20033;-87
2021/09/16 11:00:17;;;;;;;4.47;2.03;;;;;;;;;;10326592;28;20117;-86
2021/09/16 11:05:43;;;;;;;5.15;1.85;;;;;;;;;;10344887;28;20027;-86
2021/09/16 11:11:04;;;;;;;3.92;1.90;;;;;;;;;;10219737;29;20519;-87
2021/09/16 11:16:23;;;;;;;2.67;1.80;;;;;;;;;;10314981;28;20061;-87
2021/09/16 11:21:28;;;;;;;4.38;1.65;;;;;;;;;;10345436;28;20041;-87
2021/09/16 11:26:41;;;;;;;2.80;1.55;;;;;;;;;;10347228;28;20062;-87
2021/09/16 11:37:45;;;;;;;3.30;2.33;;;;;;;;;;10215781;29;20546;-88
2021/09/16 11:42:48;;;;;;;3.38;1.95;;;;;;;;;;10334537;28;20042;-87
2021/09/16 11:48:11;;;;;;;3.30;1.50;;;;;;;;;;10344676;28;20038;-89
2021/09/16 11:53:21;;;;;;;4.15;1.40;;;;;;;;;;10341470;28;20057;-88
2021/09/16 11:58:39;;;;;;;1.92;1.27;;;;;;;;;;10342384;28;20269;-88
2021/09/16 12:03:42;;;;;;;2.05;1.45;;;;;;;;;;10341694;28;20132;-88
2021/09/16 12:08:46;;;;;;;4.53;3.03;;;;;;;;;;10343822;28;20093;-89
2021/09/16 12:13:47;;;;;;;2.95;1.85;;;;;;;;;;10341263;28;20101;-89
2021/09/16 12:19:15;;;;;;;3.22;1.55;;;;;;;;;;10342990;28;20543;-89
2021/09/16 12:24:25;;;;;;;4.85;2.00;;;;;;;;;;10320435;28;20084;-88
2021/09/16 12:29:41;;;;;;;3.33;1.35;;;;;;;;;;10339989;28;20125;-88
2021/09/16 12:34:44;;;;;;;2.30;1.20;;;;;;;;;;10338720;28;20424;-88
2021/09/16 12:39:57;;;;;;;6.97;5.65;;;;;;;;;;10339578;28;20476;-88
2021/09/16 12:45:16;;;;;;;3.35;1.20;;;;;;;;;;10345725;28;20030;-88
2021/09/16 12:50:48;;;;;;;2.72;1.67;;;;;;;;;;10338429;28;20034;-88
2021/09/16 13:02:03;;;;;;;3.22;1.98;;;;;;;;;;10337654;28;20121;-88
2021/09/16 13:24:22;;;;;;;4.10;1.80;;;;;;;;;;10382381;28;20100;-89
2021/09/16 14:02:58;;;;;;;2.88;1.60;;;;;;;;;;10389125;28;20120;-88
2021/09/16 14:19:18;;;;;;;3.08;2.05;;;;;;;;;;10390660;28;20037;-87
2021/09/16 14:24:40;;;;;;;3.78;1.92;;;;;;;;;;10392450;28;20088;-89
2021/09/16 16:04:44;;;;;;;5.57;1.42;;;;;;;;;;10391773;28;20054;-85
2021/09/16 16:15:23;;;;;;;2.83;1.20;;;;;;;;;;10388592;28;20030;-85
2021/09/16 16:20:24;;;;;;;3.15;1.40;;;;;;;;;;10392757;28;20464;-83
2021/09/16 16:25:31;;;;;;;2.30;1.27;;;;;;;;;;10395298;22;20073;-86
